sensor_id;sensor_type;location;lat;lon;timestamp;temperature;humidity
42261;DHT22;27926;48.062;7.474;2023-02-02T00:00:53;5.80;99.90
42261;DHT22;27926;48.062;7.474;2023-02-02T00:03:18;5.50;99.90
42261;DHT22;27926;48.062;7.474;2023-02-02T00:05:50;6.80;99.90
42261;DHT22;27926;48.062;7.474;2023-02-02T00:08:15;5.50;99.90
42261;DHT22;27926;48.062;7.474;2023-02-02T00:10:40;5.50;99.90
42261;DHT22;27926;48.062;7.474;2023-02-02T00:13:04;5.50;99.90
42261;DHT22;27926;48.062;7.474;2023-02-02T00:15:29;6.60;99.90
42261;DHT22;27926;48.062;7.474;2023-02-02T00:17:53;6.00;99.90
42261;DHT22;27926;48.062;7.474;2023-02-02T00:20:18;5.50;99.90
42261;DHT22;27926;48.062;7.474;2023-02-02T00:22:42;5.50;99.90
42261;DHT22;27926;48.062;7.474;2023-02-02T00:25:07;6.20;99.90
42261;DHT22;27926;48.062;7.474;2023-02-02T00:27:32;5.40;99.90
42261;DHT22;27926;48.062;7.474;2023-02-02T00:29:56;5.40;99.90
42261;DHT22;27926;48.062;7.474;2023-02-02T00:32:20;6.60;99.90
42261;DHT22;27926;48.062;7.474;2023-02-02T00:34:45;6.40;99.90
42261;DHT22;27926;48.062;7.474;2023-02-02T00:37:09;6.30;99.90
42261;DHT22;27926;48.062;7.474;2023-02-02T00:39:34;6.40;99.90
42261;DHT22;27926;48.062;7.474;2023-02-02T00:41:58;5.30;99.90
42261;DHT22;27926;48.062;7.474;2023-02-02T00:44:23;5.50;99.90
42261;DHT22;27926;48.062;7.474;2023-02-02T00:47:06;5.30;99.90
42261;DHT22;27926;48.062;7.474;2023-02-02T00:49:30;5.30;99.90
42261;DHT22;27926;48.062;7.474;2023-02-02T00:51:55;6.20;99.90
42261;DHT22;27926;48.062;7.474;2023-02-02T00:54:19;5.50;99.90
42261;DHT22;27926;48.062;7.474;2023-02-02T00:56:44;5.30;99.90
42261;DHT22;27926;48.062;7.474;2023-02-02T00:59:08;5.30;99.90
42261;DHT22;27926;48.062;7.474;2023-02-02T01:01:33;5.30;99.90
42261;DHT22;27926;48.062;7.474;2023-02-02T01:03:57;5.40;99.90
42261;DHT22;27926;48.062;7.474;2023-02-02T01:06:22;5.30;99.90
42261;DHT22;27926;48.062;7.474;2023-02-02T01:08:46;5.30;99.90
42261;DHT22;27926;48.062;7.474;2023-02-02T01:11:11;5.30;99.90
42261;DHT22;27926;48.062;7.474;2023-02-02T01:13:35;6.10;99.90
42261;DHT22;27926;48.062;7.474;2023-02-02T01:16:00;5.30;99.90
42261;DHT22;27926;48.062;7.474;2023-02-02T01:18:25;5.90;99.90
42261;DHT22;27926;48.062;7.474;2023-02-02T01:21:00;5.30;99.90
42261;DHT22;27926;48.062;7.474;2023-02-02T01:23:24;5.30;99.90
42261;DHT22;27926;48.062;7.474;2023-02-02T01:25:53;5.90;99.90
42261;DHT22;27926;48.062;7.474;2023-02-02T01:28:18;5.40;99.90
42261;DHT22;27926;48.062;7.474;2023-02-02T01:30:42;5.60;99.90
42261;DHT22;27926;48.062;7.474;2023-02-02T01:33:06;6.40;99.90
42261;DHT22;27926;48.062;7.474;2023-02-02T01:35:31;5.90;99.90
42261;DHT22;27926;48.062;7.474;2023-02-02T01:37:56;6.60;99.90
42261;DHT22;27926;48.062;7.474;2023-02-02T01:40:21;5.40;99.90
42261;DHT22;27926;48.062;7.474;2023-02-02T01:42:45;5.40;99.90
42261;DHT22;27926;48.062;7.474;2023-02-02T01:47:58;5.40;99.90
42261;DHT22;27926;48.062;7.474;2023-02-02T01:50:23;6.70;99.90
42261;DHT22;27926;48.062;7.474;2023-02-02T01:52:48;5.40;99.90
42261;DHT22;27926;48.062;7.474;2023-02-02T01:55:14;5.40;99.90
42261;DHT22;27926;48.062;7.474;2023-02-02T01:57:44;6.20;99.90
42261;DHT22;27926;48.062;7.474;2023-02-02T02:00:11;6.00;99.90
42261;DHT22;27926;48.062;7.474;2023-02-02T02:02:36;5.40;99.90
42261;DHT22;27926;48.062;7.474;2023-02-02T02:05:02;5.40;99.90
42261;DHT22;27926;48.062;7.474;2023-02-02T02:07:27;5.40;99.90
42261;DHT22;27926;48.062;7.474;2023-02-02T02:09:52;6.70;99.90
42261;DHT22;27926;48.062;7.474;2023-02-02T02:12:16;5.40;99.90
42261;DHT22;27926;48.062;7.474;2023-02-02T02:14:42;5.60;99.90
42261;DHT22;27926;48.062;7.474;2023-02-02T02:20:00;5.40;99.90
42261;DHT22;27926;48.062;7.474;2023-02-02T02:33:48;5.30;99.90
42261;DHT22;27926;48.062;7.474;2023-02-02T02:38:55;5.30;99.90
42261;DHT22;27926;48.062;7.474;2023-02-02T02:41:25;5.30;99.90
42261;DHT22;27926;48.062;7.474;2023-02-02T02:43:54;5.30;99.90
42261;DHT22;27926;48.062;7.474;2023-02-02T02:46:19;5.30;99.90
42261;DHT22;27926;48.062;7.474;2023-02-02T02:48:45;6.40;99.90
42261;DHT22;27926;48.062;7.474;2023-02-02T02:53:53;5.30;99.90
42261;DHT22;27926;48.062;7.474;2023-02-02T02:56:19;5.30;99.90
42261;DHT22;27926;48.062;7.474;2023-02-02T02:58:49;5.60;99.90
42261;DHT22;27926;48.062;7.474;2023-02-02T03:01:24;5.30;99.90
42261;DHT22;27926;48.062;7.474;2023-02-02T03:03:55;5.30;99.90
42261;DHT22;27926;48.062;7.474;2023-02-02T03:06:40;6.40;99.90
42261;DHT22;27926;48.062;7.474;2023-02-02T03:09:09;5.30;99.90
42261;DHT22;27926;48.062;7.474;2023-02-02T03:11:38;5.30;99.90
42261;DHT22;27926;48.062;7.474;2023-02-02T03:14:02;5.30;99.90
42261;DHT22;27926;48.062;7.474;2023-02-02T03:16:27;5.70;99.90
42261;DHT22;27926;48.062;7.474;2023-02-02T03:18:52;5.30;99.90
42261;DHT22;27926;48.062;7.474;2023-02-02T03:21:16;5.30;99.90
42261;DHT22;27926;48.062;7.474;2023-02-02T03:23:41;5.70;99.90
42261;DHT22;27926;48.062;7.474;2023-02-02T03:26:05;5.40;99.90
42261;DHT22;27926;48.062;7.474;2023-02-02T03:28:30;6.60;99.90
42261;DHT22;27926;48.062;7.474;2023-02-02T03:30:55;6.10;99.90
42261;DHT22;27926;48.062;7.474;2023-02-02T03:33:21;5.50;99.90
42261;DHT22;27926;48.062;7.474;2023-02-02T03:35:46;5.40;99.90
42261;DHT22;27926;48.062;7.474;2023-02-02T03:38:11;5.40;99.90
42261;DHT22;27926;48.062;7.474;2023-02-02T03:40:36;5.40;99.90
42261;DHT22;27926;48.062;7.474;2023-02-02T03:43:00;5.40;99.90
42261;DHT22;27926;48.062;7.474;2023-02-02T03:45:28;5.40;99.90
42261;DHT22;27926;48.062;7.474;2023-02-02T03:47:52;5.50;99.90
42261;DHT22;27926;48.062;7.474;2023-02-02T03:50:17;5.50;99.90
42261;DHT22;27926;48.062;7.474;2023-02-02T03:52:41;5.50;99.90
42261;DHT22;27926;48.062;7.474;2023-02-02T03:55:06;5.50;99.90
42261;DHT22;27926;48.062;7.474;2023-02-02T03:57:31;5.40;99.90
42261;DHT22;27926;48.062;7.474;2023-02-02T03:59:55;6.50;99.90
42261;DHT22;27926;48.062;7.474;2023-02-02T04:02:20;5.70;99.90
42261;DHT22;27926;48.062;7.474;2023-02-02T04:04:44;6.60;99.90
42261;DHT22;27926;48.062;7.474;2023-02-02T04:07:08;6.10;99.90
42261;DHT22;27926;48.062;7.474;2023-02-02T04:09:33;6.60;99.90
42261;DHT22;27926;48.062;7.474;2023-02-02T04:11:58;5.30;99.90
42261;DHT22;27926;48.062;7.474;2023-02-02T04:14:22;5.50;99.90
42261;DHT22;27926;48.062;7.474;2023-02-02T04:16:47;5.30;99.90
42261;DHT22;27926;48.062;7.474;2023-02-02T04:19:11;6.30;99.90
42261;DHT22;27926;48.062;7.474;2023-02-02T04:21:36;6.40;99.90
42261;DHT22;27926;48.062;7.474;2023-02-02T04:24:00;5.30;99.90
42261;DHT22;27926;48.062;7.474;2023-02-02T04:26:25;6.40;99.90
42261;DHT22;27926;48.062;7.474;2023-02-02T04:28:50;6.30;99.90
42261;DHT22;27926;48.062;7.474;2023-02-02T04:31:14;5.30;99.90
42261;DHT22;27926;48.062;7.474;2023-02-02T04:33:39;5.20;99.90
42261;DHT22;27926;48.062;7.474;2023-02-02T04:36:03;5.20;99.90
42261;DHT22;27926;48.062;7.474;2023-02-02T04:38:28;5.20;99.90
42261;DHT22;27926;48.062;7.474;2023-02-02T04:40:53;6.30;99.90
42261;DHT22;27926;48.062;7.474;2023-02-02T04:43:17;5.50;99.90
42261;DHT22;27926;48.062;7.474;2023-02-02T04:45:42;5.20;99.90
42261;DHT22;27926;48.062;7.474;2023-02-02T04:48:06;6.10;99.90
42261;DHT22;27926;48.062;7.474;2023-02-02T04:50:31;5.20;99.90
42261;DHT22;27926;48.062;7.474;2023-02-02T04:52:55;6.60;99.90
42261;DHT22;27926;48.062;7.474;2023-02-02T04:55:20;5.60;99.90
42261;DHT22;27926;48.062;7.474;2023-02-02T04:57:45;5.90;99.90
42261;DHT22;27926;48.062;7.474;2023-02-02T05:00:09;5.30;99.90
42261;DHT22;27926;48.062;7.474;2023-02-02T05:02:37;5.40;99.90
42261;DHT22;27926;48.062;7.474;2023-02-02T05:05:03;5.40;99.90
42261;DHT22;27926;48.062;7.474;2023-02-02T05:07:28;5.40;99.90
42261;DHT22;27926;48.062;7.474;2023-02-02T05:09:52;5.40;99.90
42261;DHT22;27926;48.062;7.474;2023-02-02T05:12:17;5.50;99.90
42261;DHT22;27926;48.062;7.474;2023-02-02T05:14:41;6.60;99.90
42261;DHT22;27926;48.062;7.474;2023-02-02T05:17:06;5.80;99.90
42261;DHT22;27926;48.062;7.474;2023-02-02T05:19:30;6.10;99.90
42261;DHT22;27926;48.062;7.474;2023-02-02T05:21:55;6.70;99.90
42261;DHT22;27926;48.062;7.474;2023-02-02T05:24:19;6.00;99.90
42261;DHT22;27926;48.062;7.474;2023-02-02T05:26:44;5.60;99.90
42261;DHT22;27926;48.062;7.474;2023-02-02T05:29:08;5.60;99.90
42261;DHT22;27926;48.062;7.474;2023-02-02T05:31:33;5.70;99.90
42261;DHT22;27926;48.062;7.474;2023-02-02T05:33:58;5.60;99.90
42261;DHT22;27926;48.062;7.474;2023-02-02T05:36:22;5.60;99.90
42261;DHT22;27926;48.062;7.474;2023-02-02T05:38:47;5.60;99.90
42261;DHT22;27926;48.062;7.474;2023-02-02T05:41:11;5.50;99.90
42261;DHT22;27926;48.062;7.474;2023-02-02T05:43:36;6.50;99.90
42261;DHT22;27926;48.062;7.474;2023-02-02T05:46:00;5.50;99.90
42261;DHT22;27926;48.062;7.474;2023-02-02T05:48:25;5.50;99.90
42261;DHT22;27926;48.062;7.474;2023-02-02T05:53:27;5.40;99.90
42261;DHT22;27926;48.062;7.474;2023-02-02T05:55:52;5.40;99.90
42261;DHT22;27926;48.062;7.474;2023-02-02T05:58:19;6.20;99.90
42261;DHT22;27926;48.062;7.474;2023-02-02T06:00:44;5.20;99.90
42261;DHT22;27926;48.062;7.474;2023-02-02T06:03:08;5.20;99.90
42261;DHT22;27926;48.062;7.474;2023-02-02T06:05:33;5.20;99.90
42261;DHT22;27926;48.062;7.474;2023-02-02T06:07:57;5.10;99.90
42261;DHT22;27926;48.062;7.474;2023-02-02T06:10:22;5.60;99.90
42261;DHT22;27926;48.062;7.474;2023-02-02T06:12:46;5.80;99.90
42261;DHT22;27926;48.062;7.474;2023-02-02T06:15:11;5.20;99.90
42261;DHT22;27926;48.062;7.474;2023-02-02T06:17:35;5.20;99.90
42261;DHT22;27926;48.062;7.474;2023-02-02T06:20:00;5.10;99.90
42261;DHT22;27926;48.062;7.474;2023-02-02T06:22:27;5.70;99.90
42261;DHT22;27926;48.062;7.474;2023-02-02T06:24:53;5.40;99.90
42261;DHT22;27926;48.062;7.474;2023-02-02T06:27:19;6.80;99.90
42261;DHT22;27926;48.062;7.474;2023-02-02T06:29:43;5.10;99.90
42261;DHT22;27926;48.062;7.474;2023-02-02T06:32:08;5.10;99.90
42261;DHT22;27926;48.062;7.474;2023-02-02T06:34:32;5.10;99.90
42261;DHT22;27926;48.062;7.474;2023-02-02T06:36:56;5.20;99.90
42261;DHT22;27926;48.062;7.474;2023-02-02T06:39:21;6.20;99.90
42261;DHT22;27926;48.062;7.474;2023-02-02T06:41:45;5.30;99.90
42261;DHT22;27926;48.062;7.474;2023-02-02T06:44:12;5.00;99.90
42261;DHT22;27926;48.062;7.474;2023-02-02T06:46:38;7.00;99.90
42261;DHT22;27926;48.062;7.474;2023-02-02T06:49:02;6.40;99.90
42261;DHT22;27926;48.062;7.474;2023-02-02T06:51:27;6.70;99.90
42261;DHT22;27926;48.062;7.474;2023-02-02T06:53:51;5.00;99.90
42261;DHT22;27926;48.062;7.474;2023-02-02T06:56:16;5.10;99.90
42261;DHT22;27926;48.062;7.474;2023-02-02T06:58:40;5.30;99.90
42261;DHT22;27926;48.062;7.474;2023-02-02T07:01:08;4.90;99.90
42261;DHT22;27926;48.062;7.474;2023-02-02T07:03:33;4.90;99.90
42261;DHT22;27926;48.062;7.474;2023-02-02T07:05:58;5.00;99.90
42261;DHT22;27926;48.062;7.474;2023-02-02T07:08:23;4.80;99.90
42261;DHT22;27926;48.062;7.474;2023-02-02T07:10:47;6.50;99.90
42261;DHT22;27926;48.062;7.474;2023-02-02T07:13:12;6.00;99.90
42261;DHT22;27926;48.062;7.474;2023-02-02T07:15:39;4.90;99.90
42261;DHT22;27926;48.062;7.474;2023-02-02T07:18:04;4.90;99.90
42261;DHT22;27926;48.062;7.474;2023-02-02T07:20:29;5.00;99.90
42261;DHT22;27926;48.062;7.474;2023-02-02T07:22:53;5.90;99.90
42261;DHT22;27926;48.062;7.474;2023-02-02T07:25:18;5.00;99.90
42261;DHT22;27926;48.062;7.474;2023-02-02T07:27:42;5.00;99.90
42261;DHT22;27926;48.062;7.474;2023-02-02T07:30:07;6.40;99.90
42261;DHT22;27926;48.062;7.474;2023-02-02T07:32:32;5.10;99.90
42261;DHT22;27926;48.062;7.474;2023-02-02T07:34:56;5.90;99.90
42261;DHT22;27926;48.062;7.474;2023-02-02T07:37:21;5.10;99.90
42261;DHT22;27926;48.062;7.474;2023-02-02T07:39:45;5.20;99.90
42261;DHT22;27926;48.062;7.474;2023-02-02T07:42:10;6.30;99.90
42261;DHT22;27926;48.062;7.474;2023-02-02T07:44:35;6.60;99.90
42261;DHT22;27926;48.062;7.474;2023-02-02T07:46:59;5.40;99.90
42261;DHT22;27926;48.062;7.474;2023-02-02T07:49:24;7.10;99.90
42261;DHT22;27926;48.062;7.474;2023-02-02T07:51:48;5.30;99.90
42261;DHT22;27926;48.062;7.474;2023-02-02T07:54:13;6.00;99.90
42261;DHT22;27926;48.062;7.474;2023-02-02T07:56:37;5.30;99.90
42261;DHT22;27926;48.062;7.474;2023-02-02T07:59:03;5.40;99.90
42261;DHT22;27926;48.062;7.474;2023-02-02T08:01:27;5.80;99.90
42261;DHT22;27926;48.062;7.474;2023-02-02T08:03:52;6.20;99.90
42261;DHT22;27926;48.062;7.474;2023-02-02T08:06:24;5.40;99.90
42261;DHT22;27926;48.062;7.474;2023-02-02T08:08:49;5.50;99.90
42261;DHT22;27926;48.062;7.474;2023-02-02T08:11:15;6.50;99.90
42261;DHT22;27926;48.062;7.474;2023-02-02T08:13:40;5.50;99.90
42261;DHT22;27926;48.062;7.474;2023-02-02T08:16:05;6.60;99.90
42261;DHT22;27926;48.062;7.474;2023-02-02T08:18:30;5.60;99.90
42261;DHT22;27926;48.062;7.474;2023-02-02T08:20:58;5.70;99.90
42261;DHT22;27926;48.062;7.474;2023-02-02T08:23:23;5.70;99.90
42261;DHT22;27926;48.062;7.474;2023-02-02T08:25:47;5.90;99.90
42261;DHT22;27926;48.062;7.474;2023-02-02T08:28:12;5.90;99.90
42261;DHT22;27926;48.062;7.474;2023-02-02T08:30:37;5.80;99.90
42261;DHT22;27926;48.062;7.474;2023-02-02T08:33:02;6.00;99.90
42261;DHT22;27926;48.062;7.474;2023-02-02T08:35:26;6.00;99.90
42261;DHT22;27926;48.062;7.474;2023-02-02T08:37:51;6.10;99.90
42261;DHT22;27926;48.062;7.474;2023-02-02T08:40:15;6.40;99.90
42261;DHT22;27926;48.062;7.474;2023-02-02T08:42:40;6.30;99.90
42261;DHT22;27926;48.062;7.474;2023-02-02T08:45:05;6.30;99.90
42261;DHT22;27926;48.062;7.474;2023-02-02T08:47:31;6.30;99.90
42261;DHT22;27926;48.062;7.474;2023-02-02T08:49:55;6.40;99.90
42261;DHT22;27926;48.062;7.474;2023-02-02T08:52:20;7.30;99.90
42261;DHT22;27926;48.062;7.474;2023-02-02T08:54:44;6.60;99.90
42261;DHT22;27926;48.062;7.474;2023-02-02T08:57:09;7.00;99.90
42261;DHT22;27926;48.062;7.474;2023-02-02T08:59:33;7.00;99.90
42261;DHT22;27926;48.062;7.474;2023-02-02T09:01:58;7.40;99.90
42261;DHT22;27926;48.062;7.474;2023-02-02T09:04:22;7.40;99.90
42261;DHT22;27926;48.062;7.474;2023-02-02T09:06:47;7.50;99.90
42261;DHT22;27926;48.062;7.474;2023-02-02T09:09:12;7.50;99.90
42261;DHT22;27926;48.062;7.474;2023-02-02T09:11:37;7.50;99.90
42261;DHT22;27926;48.062;7.474;2023-02-02T09:14:02;7.50;99.90
42261;DHT22;27926;48.062;7.474;2023-02-02T09:16:29;7.50;99.90
42261;DHT22;27926;48.062;7.474;2023-02-02T09:18:54;7.60;99.90
42261;DHT22;27926;48.062;7.474;2023-02-02T09:21:19;7.70;99.90
42261;DHT22;27926;48.062;7.474;2023-02-02T09:23:44;7.80;99.90
42261;DHT22;27926;48.062;7.474;2023-02-02T09:28:37;7.90;99.90
42261;DHT22;27926;48.062;7.474;2023-02-02T09:31:01;7.80;99.90
42261;DHT22;27926;48.062;7.474;2023-02-02T09:33:33;7.80;99.90
42261;DHT22;27926;48.062;7.474;2023-02-02T09:36:08;7.80;99.90
42261;DHT22;27926;48.062;7.474;2023-02-02T09:38:32;7.80;99.90
42261;DHT22;27926;48.062;7.474;2023-02-02T09:40:58;7.70;99.90
42261;DHT22;27926;48.062;7.474;2023-02-02T09:43:25;7.70;99.90
42261;DHT22;27926;48.062;7.474;2023-02-02T09:45:57;7.60;99.90
42261;DHT22;27926;48.062;7.474;2023-02-02T09:48:34;7.60;99.90
42261;DHT22;27926;48.062;7.474;2023-02-02T09:51:03;7.60;99.90
42261;DHT22;27926;48.062;7.474;2023-02-02T09:55:57;7.60;99.90
42261;DHT22;27926;48.062;7.474;2023-02-02T10:06:29;7.70;99.90
42261;DHT22;27926;48.062;7.474;2023-02-02T10:11:35;7.70;99.90
42261;DHT22;27926;48.062;7.474;2023-02-02T10:14:22;7.60;99.90
42261;DHT22;27926;48.062;7.474;2023-02-02T10:16:47;7.60;99.90
42261;DHT22;27926;48.062;7.474;2023-02-02T10:19:13;8.30;99.90
42261;DHT22;27926;48.062;7.474;2023-02-02T10:24:16;7.60;99.90
42261;DHT22;27926;48.062;7.474;2023-02-02T10:26:42;7.60;99.90
42261;DHT22;27926;48.062;7.474;2023-02-02T10:39:50;7.70;99.90
42261;DHT22;27926;48.062;7.474;2023-02-02T10:47:10;7.70;99.90
42261;DHT22;27926;48.062;7.474;2023-02-02T10:49:36;7.70;99.90
42261;DHT22;27926;48.062;7.474;2023-02-02T11:10:48;8.00;99.90
42261;DHT22;27926;48.062;7.474;2023-02-02T11:13:30;8.40;99.90
42261;DHT22;27926;48.062;7.474;2023-02-02T11:18:40;8.40;99.90
42261;DHT22;27926;48.062;7.474;2023-02-02T11:23:54;8.30;99.90
42261;DHT22;27926;48.062;7.474;2023-02-02T11:26:22;8.20;99.90
42261;DHT22;27926;48.062;7.474;2023-02-02T11:28:48;8.20;99.90
42261;DHT22;27926;48.062;7.474;2023-02-02T11:31:40;8.20;99.90
42261;DHT22;27926;48.062;7.474;2023-02-02T11:34:18;8.30;99.90
42261;DHT22;27926;48.062;7.474;2023-02-02T11:37:21;8.30;99.90
42261;DHT22;27926;48.062;7.474;2023-02-02T11:39:47;8.30;99.90
42261;DHT22;27926;48.062;7.474;2023-02-02T11:42:17;8.50;99.90
42261;DHT22;27926;48.062;7.474;2023-02-02T11:44:51;8.20;99.90
42261;DHT22;27926;48.062;7.474;2023-02-02T11:47:20;8.20;99.90
42261;DHT22;27926;48.062;7.474;2023-02-02T11:49:45;8.20;99.90
42261;DHT22;27926;48.062;7.474;2023-02-02T11:52:19;8.30;99.90
42261;DHT22;27926;48.062;7.474;2023-02-02T11:54:49;8.40;99.90
42261;DHT22;27926;48.062;7.474;2023-02-02T11:57:17;8.30;99.90
42261;DHT22;27926;48.062;7.474;2023-02-02T11:59:44;8.50;99.90
42261;DHT22;27926;48.062;7.474;2023-02-02T12:04:42;8.50;99.90
42261;DHT22;27926;48.062;7.474;2023-02-02T12:07:28;8.50;99.90
42261;DHT22;27926;48.062;7.474;2023-02-02T12:10:00;8.50;99.90
42261;DHT22;27926;48.062;7.474;2023-02-02T12:13:04;8.60;99.90
42261;DHT22;27926;48.062;7.474;2023-02-02T12:15:50;8.60;99.90
42261;DHT22;27926;48.062;7.474;2023-02-02T12:26:31;8.70;99.90
42261;DHT22;27926;48.062;7.474;2023-02-02T12:44:57;8.80;99.90
42261;DHT22;27926;48.062;7.474;2023-02-02T12:47:37;8.80;99.90
42261;DHT22;27926;48.062;7.474;2023-02-02T13:03:35;8.50;99.90
42261;DHT22;27926;48.062;7.474;2023-02-02T13:06:15;8.60;99.90
42261;DHT22;27926;48.062;7.474;2023-02-02T13:11:48;8.70;99.90
42261;DHT22;27926;48.062;7.474;2023-02-02T13:14:27;8.80;99.90
42261;DHT22;27926;48.062;7.474;2023-02-02T13:16:58;8.90;99.90
42261;DHT22;27926;48.062;7.474;2023-02-02T13:19:47;9.00;99.90
42261;DHT22;27926;48.062;7.474;2023-02-02T13:22:18;8.90;99.90
42261;DHT22;27926;48.062;7.474;2023-02-02T13:24:47;8.90;99.90
42261;DHT22;27926;48.062;7.474;2023-02-02T13:27:19;8.90;99.90
42261;DHT22;27926;48.062;7.474;2023-02-02T13:32:30;8.90;99.90
42261;DHT22;27926;48.062;7.474;2023-02-02T13:35:12;8.80;99.90
42261;DHT22;27926;48.062;7.474;2023-02-02T13:38:44;8.90;99.90
42261;DHT22;27926;48.062;7.474;2023-02-02T13:40:40;8.80;99.90
42261;DHT22;27926;48.062;7.474;2023-02-02T13:59:53;9.40;99.90
42261;DHT22;27926;48.062;7.474;2023-02-02T14:05:05;9.50;99.90
42261;DHT22;27926;48.062;7.474;2023-02-02T14:07:43;9.50;99.90
42261;DHT22;27926;48.062;7.474;2023-02-02T14:10:42;9.50;99.90
42261;DHT22;27926;48.062;7.474;2023-02-02T14:15:57;9.30;99.90
42261;DHT22;27926;48.062;7.474;2023-02-02T14:21:09;9.10;99.90
42261;DHT22;27926;48.062;7.474;2023-02-02T14:23:52;9.10;99.90
42261;DHT22;27926;48.062;7.474;2023-02-02T14:26:38;9.10;99.90
42261;DHT22;27926;48.062;7.474;2023-02-02T14:29:09;9.10;99.90
42261;DHT22;27926;48.062;7.474;2023-02-02T14:31:52;9.10;99.90
42261;DHT22;27926;48.062;7.474;2023-02-02T14:34:36;9.10;99.90
42261;DHT22;27926;48.062;7.474;2023-02-02T14:45:28;9.10;99.90
42261;DHT22;27926;48.062;7.474;2023-02-02T14:48:17;9.10;99.90
42261;DHT22;27926;48.062;7.474;2023-02-02T14:50:55;8.90;99.90
42261;DHT22;27926;48.062;7.474;2023-02-02T14:53:35;8.80;99.90
42261;DHT22;27926;48.062;7.474;2023-02-02T14:56:15;8.70;99.90
42261;DHT22;27926;48.062;7.474;2023-02-02T14:58:54;8.60;99.90
42261;DHT22;27926;48.062;7.474;2023-02-02T15:01:26;8.80;99.90
42261;DHT22;27926;48.062;7.474;2023-02-02T15:06:45;8.50;99.90
42261;DHT22;27926;48.062;7.474;2023-02-02T15:17:11;8.80;99.90
42261;DHT22;27926;48.062;7.474;2023-02-02T15:19:41;9.00;99.90
42261;DHT22;27926;48.062;7.474;2023-02-02T15:22:22;8.40;99.90
42261;DHT22;27926;48.062;7.474;2023-02-02T15:24:48;8.40;99.90
42261;DHT22;27926;48.062;7.474;2023-02-02T15:27:17;8.50;99.90
42261;DHT22;27926;48.062;7.474;2023-02-02T15:29:45;9.10;99.90
42261;DHT22;27926;48.062;7.474;2023-02-02T15:32:16;8.50;99.90
42261;DHT22;27926;48.062;7.474;2023-02-02T15:34:45;8.50;99.90
42261;DHT22;27926;48.062;7.474;2023-02-02T15:37:18;8.80;99.90
42261;DHT22;27926;48.062;7.474;2023-02-02T15:39:46;8.90;99.90
42261;DHT22;27926;48.062;7.474;2023-02-02T15:42:16;8.50;99.90
42261;DHT22;27926;48.062;7.474;2023-02-02T15:45:01;8.40;99.90
42261;DHT22;27926;48.062;7.474;2023-02-02T15:47:36;10.00;99.90
42261;DHT22;27926;48.062;7.474;2023-02-02T15:50:16;8.40;99.90
42261;DHT22;27926;48.062;7.474;2023-02-02T15:52:46;8.30;99.90
42261;DHT22;27926;48.062;7.474;2023-02-02T15:55:23;9.00;99.90
42261;DHT22;27926;48.062;7.474;2023-02-02T15:57:48;8.30;99.90
42261;DHT22;27926;48.062;7.474;2023-02-02T16:00:35;8.30;99.90
42261;DHT22;27926;48.062;7.474;2023-02-02T16:03:11;8.30;99.90
42261;DHT22;27926;48.062;7.474;2023-02-02T16:06:04;8.90;99.90
42261;DHT22;27926;48.062;7.474;2023-02-02T16:08:29;8.20;99.90
42261;DHT22;27926;48.062;7.474;2023-02-02T16:11:21;8.10;99.90
42261;DHT22;27926;48.062;7.474;2023-02-02T16:16:24;8.20;99.90
42261;DHT22;27926;48.062;7.474;2023-02-02T16:19:03;8.10;99.90
42261;DHT22;27926;48.062;7.474;2023-02-02T16:21:28;8.20;99.90
42261;DHT22;27926;48.062;7.474;2023-02-02T16:23:53;8.70;99.90
42261;DHT22;27926;48.062;7.474;2023-02-02T16:26:24;9.70;99.90
42261;DHT22;27926;48.062;7.474;2023-02-02T16:28:50;8.50;99.90
42261;DHT22;27926;48.062;7.474;2023-02-02T16:31:15;7.90;99.90
42261;DHT22;27926;48.062;7.474;2023-02-02T16:33:41;9.40;99.90
42261;DHT22;27926;48.062;7.474;2023-02-02T16:36:23;8.70;99.90
42261;DHT22;27926;48.062;7.474;2023-02-02T16:38:53;7.90;99.90
42261;DHT22;27926;48.062;7.474;2023-02-02T16:41:31;7.90;99.90
42261;DHT22;27926;48.062;7.474;2023-02-02T16:47:00;7.80;99.90
42261;DHT22;27926;48.062;7.474;2023-02-02T16:49:26;7.80;99.90
42261;DHT22;27926;48.062;7.474;2023-02-02T16:52:18;8.60;99.90
42261;DHT22;27926;48.062;7.474;2023-02-02T16:54:51;8.20;99.90
42261;DHT22;27926;48.062;7.474;2023-02-02T16:57:25;7.80;99.90
42261;DHT22;27926;48.062;7.474;2023-02-02T16:59:53;8.40;99.90
42261;DHT22;27926;48.062;7.474;2023-02-02T17:02:32;7.70;99.90
42261;DHT22;27926;48.062;7.474;2023-02-02T17:05:24;7.70;99.90
42261;DHT22;27926;48.062;7.474;2023-02-02T17:07:55;7.70;99.90
42261;DHT22;27926;48.062;7.474;2023-02-02T17:10:26;7.80;99.90
42261;DHT22;27926;48.062;7.474;2023-02-02T17:12:54;8.30;99.90
42261;DHT22;27926;48.062;7.474;2023-02-02T17:17:44;7.60;99.90
42261;DHT22;27926;48.062;7.474;2023-02-02T17:20:12;7.60;99.90
42261;DHT22;27926;48.062;7.474;2023-02-02T17:22:40;7.60;99.90
42261;DHT22;27926;48.062;7.474;2023-02-02T17:25:05;8.90;99.90
42261;DHT22;27926;48.062;7.474;2023-02-02T17:27:32;7.60;99.90
42261;DHT22;27926;48.062;7.474;2023-02-02T17:30:03;8.50;99.90
42261;DHT22;27926;48.062;7.474;2023-02-02T17:32:28;7.50;99.90
42261;DHT22;27926;48.062;7.474;2023-02-02T17:34:53;7.90;99.90
42261;DHT22;27926;48.062;7.474;2023-02-02T17:37:17;7.60;99.90
42261;DHT22;27926;48.062;7.474;2023-02-02T17:39:42;7.60;99.90
42261;DHT22;27926;48.062;7.474;2023-02-02T17:42:24;7.50;99.90
42261;DHT22;27926;48.062;7.474;2023-02-02T17:44:49;7.80;99.90
42261;DHT22;27926;48.062;7.474;2023-02-02T17:47:14;8.20;99.90
42261;DHT22;27926;48.062;7.474;2023-02-02T17:49:39;8.40;99.90
42261;DHT22;27926;48.062;7.474;2023-02-02T17:52:03;8.50;99.90
42261;DHT22;27926;48.062;7.474;2023-02-02T17:54:28;7.50;99.90
42261;DHT22;27926;48.062;7.474;2023-02-02T17:56:52;7.80;99.90
42261;DHT22;27926;48.062;7.474;2023-02-02T17:59:17;8.70;99.90
42261;DHT22;27926;48.062;7.474;2023-02-02T18:01:42;8.40;99.90
42261;DHT22;27926;48.062;7.474;2023-02-02T18:04:06;8.50;99.90
42261;DHT22;27926;48.062;7.474;2023-02-02T18:06:34;7.50;99.90
42261;DHT22;27926;48.062;7.474;2023-02-02T18:08:58;9.30;99.90
42261;DHT22;27926;48.062;7.474;2023-02-02T18:11:23;7.40;99.90
42261;DHT22;27926;48.062;7.474;2023-02-02T18:13:48;8.00;99.90
42261;DHT22;27926;48.062;7.474;2023-02-02T18:16:12;7.40;99.90
42261;DHT22;27926;48.062;7.474;2023-02-02T18:18:37;7.40;99.90
42261;DHT22;27926;48.062;7.474;2023-02-02T18:21:07;7.70;99.90
42261;DHT22;27926;48.062;7.474;2023-02-02T18:23:32;7.40;99.90
42261;DHT22;27926;48.062;7.474;2023-02-02T18:26:17;8.30;99.90
42261;DHT22;27926;48.062;7.474;2023-02-02T18:28:43;7.30;99.90
42261;DHT22;27926;48.062;7.474;2023-02-02T18:31:12;7.30;99.90
42261;DHT22;27926;48.062;7.474;2023-02-02T18:33:38;7.70;99.90
42261;DHT22;27926;48.062;7.474;2023-02-02T18:36:09;7.30;99.90
42261;DHT22;27926;48.062;7.474;2023-02-02T18:38:35;7.30;99.90
42261;DHT22;27926;48.062;7.474;2023-02-02T18:40:59;7.40;99.90
42261;DHT22;27926;48.062;7.474;2023-02-02T18:43:25;7.30;99.90
42261;DHT22;27926;48.062;7.474;2023-02-02T18:46:00;7.30;99.90
42261;DHT22;27926;48.062;7.474;2023-02-02T18:48:25;7.20;99.90
42261;DHT22;27926;48.062;7.474;2023-02-02T18:50:49;7.20;99.90